Main page
METAR-TAF:

METAR-TAF

Airports :

Perpignan–Rivesaltes Airport

Perpignan, France

latitude: 42-44N, longitude: 002-52E, elevation: 43 m

Current weather observation

The report was made 16 minutes ago, at 21:30 UTC
Wind 8 kt from the West/Southwest
Temperature 6°C
Humidity 75%
Pressure 1021 hPa
Visibility 10 km or more
no clouds below 1500 m and no cumulonimbus

METAR: LFMP 102130Z AUTO 24008KT CAVOK 06/02 Q1021 NOSIG

Time: 22:46 (21:46 UTC)

Forecast

The report was made 3 hours and 46 minutes ago, at 18:00 UTC
Forecast valid from 10 at 18 UTC to 11 at 15 UTC
Wind 5 kt from variable directions
Visibility 10 km or more
no clouds below 1500 m and no cumulonimbus
Becoming
from 11 at 12 UTC to 11 at 15 UTC
Wind 15 kt from the Northwest with gusts up to 30 kt
Scattered clouds at a height of 4000 ft, Cumulonimbus.
Broken clouds at a height of 7000 ft
rain showers

TAF: LFMP 101800Z 1018/1115 VRB05KT CAVOK BECMG 1112/1115 32015G30KT SHRA SCT040CB BKN070

Weather observations and forecasts of more than 4000 airports (METAR and TAF reports).

The available stations are represented by yellow and red dots on the map.

Hover mouse over dot to see the name of the station.

Then click to see weather observations and forecasts.

To change the map : click on the green buttons with a black cross to zoom in, on the green button with a dash to zoom out, or on the green arrows for adjacent maps.


METAR-TAF: